createdAt,value
2022-09-21T00:01:43.982Z,11.20
2022-09-21T00:04:12.208Z,11.10
2022-09-21T00:06:40.554Z,11.10
2022-09-21T00:09:11.236Z,11.00
2022-09-21T00:11:40.469Z,11.00
2022-09-21T00:14:11.657Z,11.00
2022-09-21T00:16:40.587Z,11.10
2022-09-21T00:19:10.819Z,11.10
2022-09-21T00:21:40.475Z,11.10
2022-09-21T00:24:10.227Z,11.10
2022-09-21T00:26:39.488Z,11.00
2022-09-21T00:29:11.563Z,11.00
2022-09-21T00:31:41.332Z,11.00
2022-09-21T00:34:11.687Z,10.90
2022-09-21T00:36:39.779Z,10.90
2022-09-21T00:39:08.176Z,10.90
2022-09-21T00:41:37.822Z,10.90
2022-09-21T00:44:30.401Z,10.80
2022-09-21T00:47:02.847Z,10.80
2022-09-21T00:49:34.571Z,10.80
2022-09-21T00:52:05.510Z,10.70
2022-09-21T00:54:39.986Z,10.60
2022-09-21T00:57:11.375Z,10.60
2022-09-21T00:59:41.091Z,10.60
2022-09-21T01:02:11.379Z,10.50
2022-09-21T01:04:40.302Z,10.50
2022-09-21T01:07:12.954Z,10.40
2022-09-21T01:09:51.513Z,10.40
2022-09-21T01:12:35.656Z,10.40
2022-09-21T01:15:33.988Z,10.30
2022-09-21T01:18:14.855Z,10.30
2022-09-21T01:21:10.020Z,10.20
2022-09-21T01:24:02.054Z,10.20
2022-09-21T01:26:45.796Z,10.10
2022-09-21T01:29:21.986Z,10.10
2022-09-21T01:31:56.603Z,10.10
2022-09-21T01:34:32.109Z,10.10
2022-09-21T01:37:05.818Z,10.00
2022-09-21T01:39:36.797Z,9.90
2022-09-21T01:42:07.685Z,9.90
2022-09-21T01:44:42.235Z,9.90
2022-09-21T01:47:14.159Z,9.90
2022-09-21T01:49:46.720Z,9.80
2022-09-21T01:52:19.587Z,9.80
2022-09-21T01:54:53.828Z,9.80
2022-09-21T01:57:27.880Z,9.70
2022-09-21T02:00:00.123Z,9.70
2022-09-21T02:02:37.110Z,9.60
2022-09-21T02:05:06.892Z,9.70
2022-09-21T02:07:35.881Z,9.60
2022-09-21T02:10:04.849Z,9.60
2022-09-21T02:12:33.102Z,9.60
2022-09-21T02:15:05.336Z,9.50
2022-09-21T02:17:48.210Z,9.50
2022-09-21T02:20:21.597Z,9.50
2022-09-21T02:23:03.935Z,9.50
2022-09-21T02:25:47.525Z,9.40
2022-09-21T02:28:25.219Z,9.40
2022-09-21T02:31:09.022Z,9.40
2022-09-21T02:33:48.612Z,9.40
2022-09-21T02:36:23.450Z,9.40
2022-09-21T02:38:56.149Z,9.40
2022-09-21T02:41:30.304Z,9.40
2022-09-21T02:44:04.243Z,9.40
2022-09-21T02:46:42.314Z,9.30
2022-09-21T02:49:16.447Z,9.40
2022-09-21T02:51:48.174Z,9.40
2022-09-21T02:54:27.700Z,9.40
2022-09-21T02:56:56.703Z,9.30
2022-09-21T02:59:25.108Z,9.30
2022-09-21T03:01:55.882Z,9.20
2022-09-21T03:04:24.992Z,9.20
2022-09-21T03:06:54.573Z,9.10
2022-09-21T03:09:24.406Z,9.10
2022-09-21T03:11:52.660Z,9.10
2022-09-21T03:14:26.074Z,9.10
2022-09-21T03:16:56.680Z,9.00
2022-09-21T03:19:29.465Z,9.00
2022-09-21T03:21:59.796Z,9.00
2022-09-21T03:24:45.612Z,9.00
2022-09-21T03:27:14.740Z,9.00
2022-09-21T03:29:49.795Z,9.00
2022-09-21T03:32:26.615Z,9.00
2022-09-21T03:34:54.829Z,8.90
2022-09-21T03:37:25.138Z,8.90
2022-09-21T03:39:53.442Z,8.90
2022-09-21T03:42:21.639Z,8.90
2022-09-21T03:44:51.031Z,8.80
2022-09-21T03:47:19.282Z,8.80
2022-09-21T03:49:54.662Z,8.80
2022-09-21T03:52:29.014Z,8.80
2022-09-21T03:55:23.980Z,8.70
2022-09-21T03:57:54.523Z,8.60
2022-09-21T04:00:26.878Z,8.70
2022-09-21T04:02:55.311Z,8.70
2022-09-21T04:05:25.188Z,8.70
2022-09-21T04:07:55.333Z,8.60
2022-09-21T04:10:27.251Z,8.60
2022-09-21T04:13:04.473Z,8.60
2022-09-21T04:15:34.431Z,8.60
2022-09-21T04:18:03.818Z,8.60
2022-09-21T04:20:33.799Z,8.60
2022-09-21T04:23:02.263Z,8.60
2022-09-21T04:25:31.620Z,8.60
2022-09-21T04:28:00.067Z,8.60
2022-09-21T04:30:29.124Z,8.50
2022-09-21T04:32:57.976Z,8.60
2022-09-21T04:35:26.610Z,8.70
2022-09-21T04:37:57.833Z,8.60
2022-09-21T04:40:26.403Z,8.70
2022-09-21T04:42:55.225Z,8.70
2022-09-21T04:45:25.141Z,8.70
2022-09-21T04:47:55.485Z,8.70
2022-09-21T04:50:25.080Z,8.80
2022-09-21T04:52:53.438Z,8.80
2022-09-21T04:55:23.302Z,8.70
2022-09-21T04:57:52.970Z,8.70
2022-09-21T05:00:21.564Z,8.70
2022-09-21T05:02:49.883Z,8.70
2022-09-21T05:05:19.375Z,8.70
2022-09-21T05:07:48.785Z,8.60
2022-09-21T05:10:17.173Z,8.60
2022-09-21T05:12:48.884Z,8.50
2022-09-21T05:15:18.554Z,8.50
2022-09-21T05:17:52.435Z,8.50
2022-09-21T05:20:22.651Z,8.60
2022-09-21T05:22:50.888Z,8.60
2022-09-21T05:25:24.943Z,8.60
2022-09-21T05:27:54.584Z,8.50
2022-09-21T05:30:25.342Z,8.50
2022-09-21T05:33:00.881Z,8.50
2022-09-21T05:35:39.349Z,8.50
2022-09-21T05:38:13.951Z,8.60
2022-09-21T05:40:43.801Z,8.50
2022-09-21T05:43:14.011Z,8.50
2022-09-21T05:46:00.640Z,8.50
2022-09-21T05:48:34.697Z,8.60
2022-09-21T05:51:12.227Z,8.60
2022-09-21T05:53:54.000Z,8.70
2022-09-21T05:56:32.715Z,8.70
2022-09-21T05:59:22.104Z,8.80
2022-09-21T06:01:59.684Z,8.80
2022-09-21T06:04:30.811Z,8.80
2022-09-21T06:07:05.056Z,8.80
2022-09-21T06:09:43.416Z,8.80
2022-09-21T06:12:17.270Z,8.80
2022-09-21T06:14:47.327Z,8.70
2022-09-21T06:17:15.683Z,8.60
2022-09-21T06:19:45.379Z,8.60
2022-09-21T06:22:21.464Z,8.60
2022-09-21T06:24:50.847Z,8.60
2022-09-21T06:27:27.127Z,8.70
2022-09-21T06:29:56.904Z,8.90
2022-09-21T06:32:26.496Z,9.00
2022-09-21T06:34:55.024Z,9.00
2022-09-21T06:37:25.407Z,9.10
2022-09-21T06:39:55.860Z,9.20
2022-09-21T06:42:26.330Z,9.30
2022-09-21T06:44:58.303Z,9.50
2022-09-21T06:47:28.935Z,9.60
2022-09-21T06:49:57.551Z,9.80
2022-09-21T06:52:28.023Z,9.90
2022-09-21T06:54:57.477Z,10.00
2022-09-21T06:57:29.892Z,10.20
2022-09-21T07:00:01.047Z,10.30
2022-09-21T07:02:30.354Z,10.30
2022-09-21T07:04:59.956Z,10.50
2022-09-21T07:07:31.718Z,11.00
2022-09-21T07:10:13.221Z,11.40
2022-09-21T07:12:45.494Z,11.30
2022-09-21T07:15:16.468Z,11.40
2022-09-21T07:17:51.666Z,11.50
2022-09-21T07:20:29.944Z,11.70
2022-09-21T07:23:11.778Z,11.70
2022-09-21T07:25:42.278Z,11.90
2022-09-21T07:28:21.310Z,12.00
2022-09-21T07:30:52.167Z,12.00
2022-09-21T07:33:20.546Z,12.00
2022-09-21T07:35:57.370Z,12.20
2022-09-21T07:38:25.873Z,12.50
2022-09-21T07:40:57.439Z,12.50
2022-09-21T07:43:25.810Z,12.70
2022-09-21T07:45:56.812Z,12.90
2022-09-21T07:48:26.902Z,13.00
2022-09-21T07:50:57.817Z,13.20
2022-09-21T07:53:26.496Z,13.30
2022-09-21T07:56:02.789Z,13.40
2022-09-21T07:58:49.692Z,13.50
2022-09-21T08:01:19.710Z,13.60
2022-09-21T08:03:50.584Z,13.70
2022-09-21T08:06:29.381Z,13.90
2022-09-21T08:08:59.007Z,14.10
2022-09-21T08:11:30.362Z,14.20
2022-09-21T08:14:00.713Z,14.30
2022-09-21T08:16:33.886Z,14.30
2022-09-21T08:19:05.569Z,14.40
2022-09-21T08:21:34.659Z,14.50
2022-09-21T08:24:04.381Z,14.70
2022-09-21T08:26:33.874Z,14.60
2022-09-21T08:29:08.627Z,14.70
2022-09-21T08:31:38.498Z,14.90
2022-09-21T08:34:08.082Z,14.90
2022-09-21T08:36:36.550Z,14.90
2022-09-21T08:39:08.716Z,15.00
2022-09-21T08:42:06.435Z,15.00
2022-09-21T08:44:42.224Z,15.20
2022-09-21T08:47:17.104Z,15.20
2022-09-21T08:49:55.490Z,15.40
2022-09-21T08:52:26.414Z,15.50
2022-09-21T08:54:59.892Z,15.60
2022-09-21T08:57:31.534Z,15.60
2022-09-21T09:00:02.235Z,15.90
2022-09-21T09:02:50.453Z,16.20
2022-09-21T09:05:34.307Z,16.20
2022-09-21T09:08:39.232Z,16.30
2022-09-21T09:11:21.374Z,16.50
2022-09-21T09:14:05.624Z,16.60
2022-09-21T09:16:40.581Z,16.30
2022-09-21T09:19:21.714Z,16.60
2022-09-21T09:21:51.488Z,16.50
2022-09-21T09:24:25.959Z,16.50
2022-09-21T09:26:56.703Z,16.70
2022-09-21T09:29:30.390Z,16.40
2022-09-21T09:32:05.745Z,16.70
2022-09-21T09:34:39.448Z,16.90
2022-09-21T09:37:13.243Z,16.90
2022-09-21T09:39:45.425Z,16.90
2022-09-21T09:42:33.604Z,16.90
2022-09-21T09:45:25.260Z,17.10
2022-09-21T09:48:05.495Z,17.30
2022-09-21T09:50:37.531Z,17.50
2022-09-21T09:53:12.191Z,17.30
2022-09-21T09:55:55.775Z,17.60
2022-09-21T09:58:38.574Z,17.70
2022-09-21T10:01:07.188Z,17.70
2022-09-21T10:03:38.229Z,17.50
2022-09-21T10:06:17.498Z,17.70
2022-09-21T10:08:47.726Z,17.60
2022-09-21T10:11:20.131Z,17.80
2022-09-21T10:13:54.524Z,18.00
2022-09-21T10:16:25.756Z,18.20
2022-09-21T10:18:58.999Z,18.40
2022-09-21T10:21:35.400Z,18.60
2022-09-21T10:24:19.894Z,17.90
2022-09-21T10:26:54.553Z,17.90
2022-09-21T10:29:33.753Z,18.30
2022-09-21T10:32:03.665Z,18.50
2022-09-21T10:34:35.734Z,18.60
2022-09-21T10:37:29.899Z,18.50
2022-09-21T10:39:59.260Z,18.80
2022-09-21T10:42:28.807Z,18.60
2022-09-21T10:45:16.137Z,18.60
2022-09-21T10:47:47.827Z,18.70
2022-09-21T10:50:27.238Z,18.80
2022-09-21T10:53:02.965Z,18.70
2022-09-21T10:55:33.674Z,18.60
2022-09-21T10:58:02.936Z,18.40
2022-09-21T11:00:38.652Z,18.40
2022-09-21T11:03:42.128Z,18.10
2022-09-21T11:06:17.732Z,18.70
2022-09-21T11:08:54.970Z,18.50
2022-09-21T11:11:50.986Z,18.60
2022-09-21T11:14:31.187Z,19.30
2022-09-21T11:17:14.347Z,19.50
2022-09-21T11:19:48.224Z,19.60
2022-09-21T11:22:24.040Z,19.70
2022-09-21T11:25:04.255Z,20.00
2022-09-21T11:27:38.374Z,19.90
2022-09-21T11:30:12.166Z,19.90
2022-09-21T11:32:57.404Z,20.10
2022-09-21T11:35:48.936Z,20.30
2022-09-21T11:38:32.279Z,20.30
2022-09-21T11:41:17.449Z,19.80
2022-09-21T11:44:03.253Z,20.10
2022-09-21T11:46:37.128Z,19.10
2022-09-21T11:49:33.598Z,19.50
2022-09-21T11:52:20.435Z,20.00
2022-09-21T11:55:06.295Z,20.10
2022-09-21T11:57:41.205Z,20.30
2022-09-21T12:00:16.046Z,20.10
2022-09-21T12:03:26.429Z,20.00
2022-09-21T12:06:20.410Z,19.40
2022-09-21T12:09:17.968Z,18.80
2022-09-21T12:11:52.617Z,18.80
2022-09-21T12:14:33.778Z,18.90
2022-09-21T12:17:09.923Z,18.80
2022-09-21T12:19:47.081Z,18.60
2022-09-21T12:22:19.560Z,18.20
2022-09-21T12:24:52.005Z,18.00
2022-09-21T12:27:33.490Z,17.90
2022-09-21T12:30:08.251Z,17.80
2022-09-21T12:32:50.529Z,17.90
2022-09-21T12:35:23.932Z,18.00
2022-09-21T12:37:58.548Z,18.60
2022-09-21T12:40:36.213Z,19.40
2022-09-21T12:43:14.914Z,19.60
2022-09-21T12:45:49.794Z,20.00
2022-09-21T12:48:28.129Z,20.50
2022-09-21T12:51:05.125Z,20.80
2022-09-21T12:53:39.141Z,21.40
2022-09-21T12:56:12.209Z,21.20
2022-09-21T12:58:58.381Z,21.30
2022-09-21T13:01:40.891Z,21.50
2022-09-21T13:04:45.744Z,20.90
2022-09-21T13:07:43.571Z,21.80
2022-09-21T13:10:22.133Z,21.60
2022-09-21T13:12:59.473Z,21.80
2022-09-21T13:15:31.463Z,21.80
2022-09-21T13:18:06.605Z,21.50
2022-09-21T13:20:39.958Z,20.80
2022-09-21T13:23:17.828Z,19.90
2022-09-21T13:25:51.185Z,19.60
2022-09-21T13:28:41.637Z,19.40
2022-09-21T13:31:53.295Z,19.40
2022-09-21T13:34:27.756Z,19.40
2022-09-21T13:37:39.745Z,20.50
2022-09-21T13:40:50.295Z,20.90
2022-09-21T13:43:58.608Z,21.00
2022-09-21T13:46:52.094Z,21.20
2022-09-21T13:49:31.755Z,20.40
2022-09-21T13:52:03.194Z,20.10
2022-09-21T13:54:35.419Z,19.50
2022-09-21T13:57:21.204Z,19.00
2022-09-21T14:00:30.285Z,19.10
2022-09-21T14:03:04.550Z,19.90
2022-09-21T14:05:39.356Z,20.50
2022-09-21T14:08:23.265Z,20.30
2022-09-21T14:10:55.929Z,19.50
2022-09-21T14:13:34.915Z,19.40
2022-09-21T14:16:47.614Z,19.00
2022-09-21T14:20:09.089Z,18.90
2022-09-21T14:22:43.736Z,18.70
2022-09-21T14:25:32.468Z,18.80
2022-09-21T14:28:12.163Z,18.80
2022-09-21T14:30:41.712Z,18.80
2022-09-21T14:33:29.371Z,18.80
2022-09-21T14:35:59.178Z,18.60
2022-09-21T14:38:58.151Z,18.50
2022-09-21T14:41:34.542Z,18.20
2022-09-21T14:44:03.535Z,18.10
2022-09-21T14:46:59.649Z,18.00
2022-09-21T14:49:52.630Z,18.20
2022-09-21T14:52:33.787Z,18.20
2022-09-21T14:55:17.327Z,18.00
2022-09-21T14:58:09.145Z,18.20
2022-09-21T15:00:50.380Z,17.90
2022-09-21T15:03:44.970Z,17.80
2022-09-21T15:06:41.273Z,17.80
2022-09-21T15:09:49.676Z,17.60
2022-09-21T15:12:28.702Z,17.70
2022-09-21T15:15:14.713Z,17.70
2022-09-21T15:17:57.361Z,17.70
2022-09-21T15:20:31.135Z,17.70
2022-09-21T15:23:01.336Z,17.70
2022-09-21T15:25:33.533Z,17.60
2022-09-21T15:28:07.662Z,17.70
2022-09-21T15:30:46.006Z,17.70
2022-09-21T15:33:15.817Z,17.60
2022-09-21T15:35:48.045Z,17.60
2022-09-21T15:38:29.584Z,17.50
2022-09-21T15:41:02.773Z,17.50
2022-09-21T15:43:34.626Z,17.50
2022-09-21T15:46:30.412Z,17.40
2022-09-21T15:49:02.019Z,17.60
2022-09-21T15:51:41.233Z,17.60
2022-09-21T15:54:30.159Z,17.50
2022-09-21T15:57:03.557Z,17.50
2022-09-21T15:59:47.549Z,17.50
2022-09-21T16:02:22.837Z,17.40
2022-09-21T16:04:53.011Z,17.30
2022-09-21T16:07:33.316Z,17.30
2022-09-21T16:10:38.144Z,17.20
2022-09-21T16:13:25.336Z,17.20
2022-09-21T16:16:07.704Z,17.10
2022-09-21T16:18:47.891Z,17.10
2022-09-21T16:21:28.076Z,17.10
2022-09-21T16:23:59.576Z,17.00
2022-09-21T16:26:35.984Z,17.00
2022-09-21T16:29:25.642Z,16.90
2022-09-21T16:32:24.127Z,16.80
2022-09-21T16:34:55.089Z,16.70
2022-09-21T16:37:29.358Z,16.70
2022-09-21T16:40:03.982Z,16.60
2022-09-21T16:42:34.965Z,16.60
2022-09-21T16:45:11.709Z,16.50
2022-09-21T16:47:41.622Z,16.50
2022-09-21T16:50:19.109Z,16.50
2022-09-21T16:52:54.256Z,16.40
2022-09-21T16:55:29.373Z,16.50
2022-09-21T16:58:26.199Z,16.40
2022-09-21T17:01:00.804Z,16.20
2022-09-21T17:03:34.486Z,16.00
2022-09-21T17:06:16.869Z,15.90
2022-09-21T17:09:16.984Z,15.70
2022-09-21T17:11:48.301Z,15.50
2022-09-21T17:14:26.863Z,15.40
2022-09-21T17:16:58.851Z,15.30
2022-09-21T17:19:29.779Z,15.10
2022-09-21T17:22:05.461Z,15.10
2022-09-21T17:24:50.304Z,15.00
2022-09-21T17:27:23.591Z,14.90
2022-09-21T17:29:55.194Z,14.90
2022-09-21T17:32:25.719Z,14.80
2022-09-21T17:35:02.130Z,14.70
2022-09-21T17:37:32.426Z,14.60
2022-09-21T17:40:01.325Z,14.60
2022-09-21T17:42:30.112Z,14.50
2022-09-21T17:45:12.932Z,14.50
2022-09-21T17:47:42.189Z,14.40
2022-09-21T17:50:28.697Z,14.30
2022-09-21T17:53:15.925Z,14.20
2022-09-21T17:55:54.623Z,14.10
2022-09-21T17:58:44.679Z,14.00
2022-09-21T18:01:27.560Z,13.90
2022-09-21T18:03:57.631Z,13.90
2022-09-21T18:06:31.628Z,13.80
2022-09-21T18:09:01.746Z,13.80
2022-09-21T18:11:55.128Z,13.70
2022-09-21T18:14:34.367Z,13.70
2022-09-21T18:17:16.556Z,13.60
2022-09-21T18:20:11.938Z,13.50
2022-09-21T18:22:58.430Z,13.50
2022-09-21T18:25:31.312Z,13.40
2022-09-21T18:28:15.150Z,13.40
2022-09-21T18:30:51.753Z,13.30
2022-09-21T18:33:28.974Z,13.20
2022-09-21T18:36:12.220Z,13.10
2022-09-21T18:38:48.699Z,13.10
2022-09-21T18:41:31.278Z,13.00
2022-09-21T18:44:10.275Z,12.90
2022-09-21T18:46:56.997Z,12.90
2022-09-21T18:49:49.498Z,12.90
2022-09-21T18:52:30.587Z,12.80
2022-09-21T18:55:19.403Z,12.80
2022-09-21T18:57:54.648Z,12.70
2022-09-21T19:00:30.202Z,12.70
2022-09-21T19:03:16.553Z,12.60
2022-09-21T19:05:53.010Z,12.60
2022-09-21T19:08:29.858Z,12.50
2022-09-21T19:11:09.690Z,12.50
2022-09-21T19:13:59.751Z,12.40
2022-09-21T19:16:35.929Z,12.40
2022-09-21T19:19:18.244Z,12.40
2022-09-21T19:21:56.803Z,12.30
2022-09-21T19:24:33.105Z,12.20
2022-09-21T19:27:16.387Z,12.20
2022-09-21T19:29:58.031Z,12.20
2022-09-21T19:32:36.250Z,12.10
2022-09-21T19:35:18.395Z,12.10
2022-09-21T19:37:55.492Z,12.00
2022-09-21T19:40:27.454Z,11.90
2022-09-21T19:43:18.411Z,11.90
2022-09-21T19:46:05.122Z,11.90
2022-09-21T19:48:44.107Z,11.80
2022-09-21T19:51:20.471Z,11.80
2022-09-21T19:54:13.911Z,11.70
2022-09-21T19:57:02.131Z,11.70
2022-09-21T19:59:45.317Z,11.70
2022-09-21T20:02:18.527Z,11.60
2022-09-21T20:04:58.341Z,11.60
2022-09-21T20:07:37.603Z,11.50
2022-09-21T20:10:46.158Z,11.50
2022-09-21T20:13:31.418Z,11.40
2022-09-21T20:16:18.947Z,11.40
2022-09-21T20:18:53.406Z,11.30
2022-09-21T20:21:38.656Z,11.30
2022-09-21T20:24:19.293Z,11.20
2022-09-21T20:26:50.793Z,11.20
2022-09-21T20:29:24.446Z,11.20
2022-09-21T20:31:56.228Z,11.20
2022-09-21T20:34:24.651Z,11.10
2022-09-21T20:36:57.084Z,11.10
2022-09-21T20:39:26.453Z,11.10
2022-09-21T20:41:58.231Z,11.00
2022-09-21T20:44:29.847Z,11.00
2022-09-21T20:46:59.484Z,11.00
2022-09-21T20:49:28.738Z,11.00
2022-09-21T20:52:09.433Z,10.90
2022-09-21T20:54:38.714Z,10.90
2022-09-21T20:57:07.124Z,10.90
2022-09-21T20:59:35.433Z,10.80
2022-09-21T21:02:14.793Z,10.80
2022-09-21T21:04:43.385Z,10.70
2022-09-21T21:07:11.893Z,10.70
2022-09-21T21:09:48.442Z,10.70
2022-09-21T21:12:23.948Z,10.60
2022-09-21T21:15:18.594Z,10.60
2022-09-21T21:17:53.550Z,10.60
2022-09-21T21:20:31.937Z,10.50
2022-09-21T21:23:03.419Z,10.50
2022-09-21T21:25:39.370Z,10.40
2022-09-21T21:28:09.929Z,10.40
2022-09-21T21:30:38.391Z,10.40
2022-09-21T21:33:13.943Z,10.40
2022-09-21T21:35:42.296Z,10.40
2022-09-21T21:38:13.509Z,10.40
2022-09-21T21:40:41.982Z,10.30
2022-09-21T21:43:23.926Z,10.30
2022-09-21T21:45:54.523Z,10.30
2022-09-21T21:48:31.559Z,10.30
2022-09-21T21:51:29.925Z,10.20
2022-09-21T21:54:06.830Z,10.20
2022-09-21T21:56:42.360Z,10.20
2022-09-21T21:59:14.181Z,10.20
2022-09-21T22:01:45.621Z,10.20
2022-09-21T22:04:15.533Z,10.20
2022-09-21T22:06:44.218Z,10.10
2022-09-21T22:09:13.137Z,10.10
2022-09-21T22:11:52.749Z,10.10
2022-09-21T22:14:23.169Z,10.10
2022-09-21T22:16:52.810Z,10.10
2022-09-21T22:19:29.533Z,10.00
2022-09-21T22:22:10.956Z,10.00
2022-09-21T22:24:39.256Z,9.90
2022-09-21T22:27:07.733Z,9.90
2022-09-21T22:29:42.012Z,9.90
2022-09-21T22:32:10.439Z,9.80
2022-09-21T22:34:47.271Z,9.70
2022-09-21T22:37:17.517Z,9.70
2022-09-21T22:39:46.815Z,9.80
2022-09-21T22:42:15.101Z,9.70
2022-09-21T22:44:43.490Z,9.70
2022-09-21T22:47:13.775Z,9.60
2022-09-21T22:50:06.104Z,9.60
2022-09-21T22:52:36.621Z,9.40
2022-09-21T22:55:08.104Z,9.40
2022-09-21T22:57:42.150Z,9.50
2022-09-21T23:00:17.070Z,9.40
2022-09-21T23:02:46.477Z,9.40
2022-09-21T23:05:23.713Z,9.40
2022-09-21T23:07:57.107Z,9.40
2022-09-21T23:10:36.689Z,9.40
2022-09-21T23:13:05.018Z,9.40
2022-09-21T23:15:40.559Z,9.40
2022-09-21T23:18:18.509Z,9.30
2022-09-21T23:20:59.209Z,9.30
2022-09-21T23:23:29.003Z,9.30
2022-09-21T23:26:10.141Z,9.30
2022-09-21T23:28:41.928Z,9.30
2022-09-21T23:31:13.780Z,9.30
2022-09-21T23:33:48.441Z,9.30
2022-09-21T23:36:26.987Z,9.30
2022-09-21T23:38:56.757Z,9.30
2022-09-21T23:41:27.125Z,9.30
2022-09-21T23:43:57.192Z,9.30
2022-09-21T23:46:27.724Z,9.40
2022-09-21T23:49:06.632Z,9.40
2022-09-21T23:51:46.373Z,9.40
2022-09-21T23:54:16.328Z,9.30
2022-09-21T23:56:49.421Z,9.30
2022-09-21T23:59:17.743Z,9.20
